sensor_id;sensor_type;location;lat;lon;timestamp;pressure;altitude;pressure_sealevel;temperature;humidity
54600;BME280;40500;51.084;16.958;2023-04-21T00:01:36;100578.15;;;8.08;100.00
54600;BME280;40500;51.084;16.958;2023-04-21T00:04:07;100574.15;;;8.09;100.00
54600;BME280;40500;51.084;16.958;2023-04-21T00:06:43;100574.48;;;8.12;100.00
54600;BME280;40500;51.084;16.958;2023-04-21T00:09:13;100570.63;;;8.13;100.00
54600;BME280;40500;51.084;16.958;2023-04-21T00:11:44;100567.32;;;8.15;100.00
54600;BME280;40500;51.084;16.958;2023-04-21T00:14:15;100567.65;;;8.18;100.00
54600;BME280;40500;51.084;16.958;2023-04-21T00:16:45;100559.27;;;8.23;100.00
54600;BME280;40500;51.084;16.958;2023-04-21T00:19:20;100558.02;;;8.29;100.00
54600;BME280;40500;51.084;16.958;2023-04-21T00:21:52;100559.40;;;8.33;100.00
54600;BME280;40500;51.084;16.958;2023-04-21T00:24:27;100556.92;;;8.40;100.00
54600;BME280;40500;51.084;16.958;2023-04-21T00:26:57;100556.60;;;8.44;100.00
54600;BME280;40500;51.084;16.958;2023-04-21T00:29:27;100554.65;;;8.47;100.00
54600;BME280;40500;51.084;16.958;2023-04-21T00:31:58;100553.42;;;8.50;100.00
54600;BME280;40500;51.084;16.958;2023-04-21T00:34:32;100546.76;;;8.55;100.00
54600;BME280;40500;51.084;16.958;2023-04-21T00:37:03;100549.54;;;8.58;100.00
54600;BME280;40500;51.084;16.958;2023-04-21T00:39:33;100549.86;;;8.62;100.00
54600;BME280;40500;51.084;16.958;2023-04-21T00:42:04;100553.00;;;8.63;100.00
54600;BME280;40500;51.084;16.958;2023-04-21T00:44:36;100551.26;;;8.63;100.00
54600;BME280;40500;51.084;16.958;2023-04-21T00:47:07;100544.80;;;8.65;100.00
54600;BME280;40500;51.084;16.958;2023-04-21T00:49:37;100548.10;;;8.67;100.00
54600;BME280;40500;51.084;16.958;2023-04-21T00:52:08;100548.44;;;8.68;100.00
54600;BME280;40500;51.084;16.958;2023-04-21T00:54:39;100551.08;;;8.68;100.00
54600;BME280;40500;51.084;16.958;2023-04-21T00:57:11;100552.80;;;8.68;100.00
54600;BME280;40500;51.084;16.958;2023-04-21T00:59:41;100552.13;;;8.67;100.00
54600;BME280;40500;51.084;16.958;2023-04-21T01:02:12;100547.91;;;8.68;100.00
54600;BME280;40500;51.084;16.958;2023-04-21T01:04:43;100550.20;;;8.66;100.00
54600;BME280;40500;51.084;16.958;2023-04-21T01:07:14;100547.95;;;8.63;100.00
54600;BME280;40500;51.084;16.958;2023-04-21T01:09:44;100554.27;;;8.57;100.00
54600;BME280;40500;51.084;16.958;2023-04-21T01:12:15;100556.92;;;8.49;100.00
54600;BME280;40500;51.084;16.958;2023-04-21T01:14:45;100560.42;;;8.40;100.00
54600;BME280;40500;51.084;16.958;2023-04-21T01:17:16;100560.45;;;8.31;100.00
54600;BME280;40500;51.084;16.958;2023-04-21T01:19:49;100556.81;;;8.24;100.00
54600;BME280;40500;51.084;16.958;2023-04-21T01:22:21;100555.61;;;8.22;100.00
54600;BME280;40500;51.084;16.958;2023-04-21T01:24:52;100558.41;;;8.20;100.00
54600;BME280;40500;51.084;16.958;2023-04-21T01:27:23;100562.79;;;8.16;100.00
54600;BME280;40500;51.084;16.958;2023-04-21T01:29:56;100561.23;;;8.12;100.00
54600;BME280;40500;51.084;16.958;2023-04-21T01:32:29;100560.88;;;8.10;100.00
54600;BME280;40500;51.084;16.958;2023-04-21T01:35:00;100559.48;;;8.07;100.00
54600;BME280;40500;51.084;16.958;2023-04-21T01:37:33;100561.43;;;8.04;100.00
54600;BME280;40500;51.084;16.958;2023-04-21T01:40:07;100562.84;;;8.00;100.00
54600;BME280;40500;51.084;16.958;2023-04-21T01:42:40;100557.27;;;7.93;100.00
54600;BME280;40500;51.084;16.958;2023-04-21T01:45:11;100563.04;;;7.87;100.00
54600;BME280;40500;51.084;16.958;2023-04-21T01:47:42;100562.52;;;7.76;100.00
54600;BME280;40500;51.084;16.958;2023-04-21T01:50:15;100565.87;;;7.64;100.00
54600;BME280;40500;51.084;16.958;2023-04-21T01:52:46;100558.91;;;7.51;100.00
54600;BME280;40500;51.084;16.958;2023-04-21T01:55:17;100560.14;;;7.44;100.00
54600;BME280;40500;51.084;16.958;2023-04-21T01:57:47;100564.67;;;7.38;100.00
54600;BME280;40500;51.084;16.958;2023-04-21T02:00:19;100562.05;;;7.36;100.00
54600;BME280;40500;51.084;16.958;2023-04-21T02:02:49;100563.97;;;7.34;100.00
54600;BME280;40500;51.084;16.958;2023-04-21T02:05:20;100563.63;;;7.32;100.00
54600;BME280;40500;51.084;16.958;2023-04-21T02:07:50;100565.89;;;7.28;100.00
54600;BME280;40500;51.084;16.958;2023-04-21T02:10:23;100571.80;;;7.25;100.00
54600;BME280;40500;51.084;16.958;2023-04-21T02:12:54;100570.76;;;7.21;100.00
54600;BME280;40500;51.084;16.958;2023-04-21T02:15:24;100566.23;;;7.17;100.00
54600;BME280;40500;51.084;16.958;2023-04-21T02:17:55;100570.59;;;7.12;100.00
54600;BME280;40500;51.084;16.958;2023-04-21T02:20:26;100567.95;;;7.08;100.00
54600;BME280;40500;51.084;16.958;2023-04-21T02:22:57;100571.62;;;7.06;100.00
54600;BME280;40500;51.084;16.958;2023-04-21T02:25:29;100570.73;;;7.02;100.00
54600;BME280;40500;51.084;16.958;2023-04-21T02:27:59;100567.95;;;6.98;100.00
54600;BME280;40500;51.084;16.958;2023-04-21T02:30:30;100573.17;;;6.95;100.00
54600;BME280;40500;51.084;16.958;2023-04-21T02:33:01;100571.77;;;6.92;100.00
54600;BME280;40500;51.084;16.958;2023-04-21T02:35:31;100574.20;;;6.88;100.00
54600;BME280;40500;51.084;16.958;2023-04-21T02:38:02;100575.77;;;6.85;100.00
54600;BME280;40500;51.084;16.958;2023-04-21T02:40:35;100576.64;;;6.83;100.00
54600;BME280;40500;51.084;16.958;2023-04-21T02:43:06;100577.66;;;6.77;100.00
54600;BME280;40500;51.084;16.958;2023-04-21T02:45:37;100579.54;;;6.64;100.00
54600;BME280;40500;51.084;16.958;2023-04-21T02:48:07;100582.28;;;6.52;100.00
54600;BME280;40500;51.084;16.958;2023-04-21T02:50:38;100586.06;;;6.42;100.00
54600;BME280;40500;51.084;16.958;2023-04-21T02:53:09;100588.64;;;6.35;100.00
54600;BME280;40500;51.084;16.958;2023-04-21T02:55:39;100590.72;;;6.30;100.00
54600;BME280;40500;51.084;16.958;2023-04-21T02:58:10;100587.74;;;6.25;100.00
54600;BME280;40500;51.084;16.958;2023-04-21T03:00:40;100584.20;;;6.14;100.00
54600;BME280;40500;51.084;16.958;2023-04-21T03:03:11;100585.19;;;6.02;100.00
54600;BME280;40500;51.084;16.958;2023-04-21T03:05:43;100590.87;;;5.95;100.00
54600;BME280;40500;51.084;16.958;2023-04-21T03:08:14;100595.19;;;5.93;100.00
54600;BME280;40500;51.084;16.958;2023-04-21T03:10:44;100595.11;;;5.84;100.00
54600;BME280;40500;51.084;16.958;2023-04-21T03:13:15;100596.27;;;5.74;100.00
54600;BME280;40500;51.084;16.958;2023-04-21T03:15:45;100599.73;;;5.73;100.00
54600;BME280;40500;51.084;16.958;2023-04-21T03:18:18;100598.33;;;5.70;100.00
54600;BME280;40500;51.084;16.958;2023-04-21T03:20:49;100597.24;;;5.65;100.00
54600;BME280;40500;51.084;16.958;2023-04-21T03:23:19;100593.77;;;5.64;100.00
54600;BME280;40500;51.084;16.958;2023-04-21T03:25:50;100593.61;;;5.65;100.00
54600;BME280;40500;51.084;16.958;2023-04-21T03:28:20;100595.91;;;5.70;100.00
54600;BME280;40500;51.084;16.958;2023-04-21T03:30:50;100596.41;;;5.70;100.00
54600;BME280;40500;51.084;16.958;2023-04-21T03:33:21;100593.59;;;5.62;100.00
54600;BME280;40500;51.084;16.958;2023-04-21T03:35:51;100593.84;;;5.50;100.00
54600;BME280;40500;51.084;16.958;2023-04-21T03:38:22;100598.09;;;5.39;100.00
54600;BME280;40500;51.084;16.958;2023-04-21T03:40:52;100601.50;;;5.32;100.00
54600;BME280;40500;51.084;16.958;2023-04-21T03:43:23;100605.08;;;5.24;100.00
54600;BME280;40500;51.084;16.958;2023-04-21T03:45:53;100605.02;;;5.16;100.00
54600;BME280;40500;51.084;16.958;2023-04-21T03:48:24;100601.50;;;5.12;100.00
54600;BME280;40500;51.084;16.958;2023-04-21T03:50:56;100606.01;;;5.11;100.00
54600;BME280;40500;51.084;16.958;2023-04-21T03:53:27;100607.21;;;5.10;100.00
54600;BME280;40500;51.084;16.958;2023-04-21T03:55:57;100606.16;;;5.09;100.00
54600;BME280;40500;51.084;16.958;2023-04-21T03:58:28;100603.02;;;5.08;100.00
54600;BME280;40500;51.084;16.958;2023-04-21T04:00:58;100604.03;;;5.04;100.00
54600;BME280;40500;51.084;16.958;2023-04-21T04:03:29;100599.48;;;5.00;100.00
54600;BME280;40500;51.084;16.958;2023-04-21T04:05:59;100604.86;;;5.00;100.00
54600;BME280;40500;51.084;16.958;2023-04-21T04:08:32;100609.20;;;5.00;100.00
54600;BME280;40500;51.084;16.958;2023-04-21T04:11:02;100613.89;;;5.01;100.00
54600;BME280;40500;51.084;16.958;2023-04-21T04:13:32;100610.93;;;5.01;100.00
54600;BME280;40500;51.084;16.958;2023-04-21T04:16:03;100610.08;;;5.02;100.00
54600;BME280;40500;51.084;16.958;2023-04-21T04:18:34;100610.40;;;4.99;100.00
54600;BME280;40500;51.084;16.958;2023-04-21T04:21:07;100616.81;;;5.00;100.00
54600;BME280;40500;51.084;16.958;2023-04-21T04:23:37;100618.23;;;5.01;100.00
54600;BME280;40500;51.084;16.958;2023-04-21T04:26:08;100613.89;;;5.03;100.00
54600;BME280;40500;51.084;16.958;2023-04-21T04:28:39;100620.37;;;5.07;100.00
54600;BME280;40500;51.084;16.958;2023-04-21T04:31:10;100616.08;;;5.12;100.00
54600;BME280;40500;51.084;16.958;2023-04-21T04:33:42;100617.87;;;5.18;100.00
54600;BME280;40500;51.084;16.958;2023-04-21T04:36:12;100614.11;;;5.25;100.00
54600;BME280;40500;51.084;16.958;2023-04-21T04:38:43;100617.64;;;5.30;100.00
54600;BME280;40500;51.084;16.958;2023-04-21T04:41:14;100618.73;;;5.36;100.00
54600;BME280;40500;51.084;16.958;2023-04-21T04:43:45;100619.65;;;5.42;100.00
54600;BME280;40500;51.084;16.958;2023-04-21T04:46:15;100610.36;;;5.52;100.00
54600;BME280;40500;51.084;16.958;2023-04-21T04:48:49;100611.89;;;5.70;100.00
54600;BME280;40500;51.084;16.958;2023-04-21T04:51:19;100612.33;;;5.83;100.00
54600;BME280;40500;51.084;16.958;2023-04-21T04:53:49;100617.42;;;5.92;100.00
54600;BME280;40500;51.084;16.958;2023-04-21T04:56:20;100619.74;;;5.99;100.00
54600;BME280;40500;51.084;16.958;2023-04-21T04:58:51;100618.58;;;6.04;100.00
54600;BME280;40500;51.084;16.958;2023-04-21T05:01:22;100624.17;;;6.10;100.00
54600;BME280;40500;51.084;16.958;2023-04-21T05:03:58;100624.55;;;6.17;100.00
54600;BME280;40500;51.084;16.958;2023-04-21T05:06:29;100623.04;;;6.25;100.00
54600;BME280;40500;51.084;16.958;2023-04-21T05:09:00;100622.05;;;6.35;100.00
54600;BME280;40500;51.084;16.958;2023-04-21T05:11:33;100618.27;;;6.45;100.00
54600;BME280;40500;51.084;16.958;2023-04-21T05:14:03;100619.00;;;6.56;100.00
54600;BME280;40500;51.084;16.958;2023-04-21T05:16:33;100627.41;;;6.68;100.00
54600;BME280;40500;51.084;16.958;2023-04-21T05:19:04;100623.45;;;6.81;100.00
54600;BME280;40500;51.084;16.958;2023-04-21T05:21:34;100622.82;;;7.10;100.00
54600;BME280;40500;51.084;16.958;2023-04-21T05:24:05;100621.64;;;7.59;100.00
54600;BME280;40500;51.084;16.958;2023-04-21T05:26:35;100621.95;;;7.99;100.00
54600;BME280;40500;51.084;16.958;2023-04-21T05:29:06;100616.51;;;8.13;100.00
54600;BME280;40500;51.084;16.958;2023-04-21T05:31:36;100620.98;;;8.35;100.00
54600;BME280;40500;51.084;16.958;2023-04-21T05:34:07;100618.09;;;8.67;100.00
54600;BME280;40500;51.084;16.958;2023-04-21T05:36:39;100623.09;;;8.82;100.00
54600;BME280;40500;51.084;16.958;2023-04-21T05:39:10;100618.20;;;8.82;100.00
54600;BME280;40500;51.084;16.958;2023-04-21T05:41:40;100616.80;;;8.82;100.00
54600;BME280;40500;51.084;16.958;2023-04-21T05:44:11;100618.52;;;8.87;100.00
54600;BME280;40500;51.084;16.958;2023-04-21T05:46:41;100615.17;;;8.93;100.00
54600;BME280;40500;51.084;16.958;2023-04-21T05:49:13;100612.87;;;9.00;100.00
54600;BME280;40500;51.084;16.958;2023-04-21T05:51:43;100610.55;;;9.07;100.00
54600;BME280;40500;51.084;16.958;2023-04-21T05:54:14;100610.49;;;9.16;100.00
54600;BME280;40500;51.084;16.958;2023-04-21T05:56:45;100612.52;;;9.25;100.00
54600;BME280;40500;51.084;16.958;2023-04-21T05:59:16;100615.75;;;9.36;100.00
54600;BME280;40500;51.084;16.958;2023-04-21T06:01:46;100620.05;;;9.47;100.00
54600;BME280;40500;51.084;16.958;2023-04-21T06:04:17;100616.45;;;9.60;100.00
54600;BME280;40500;51.084;16.958;2023-04-21T06:06:48;100614.23;;;9.73;100.00
54600;BME280;40500;51.084;16.958;2023-04-21T06:09:18;100616.69;;;9.91;100.00
54600;BME280;40500;51.084;16.958;2023-04-21T06:11:49;100621.61;;;10.23;100.00
54600;BME280;40500;51.084;16.958;2023-04-21T06:14:19;100621.21;;;10.59;100.00
54600;BME280;40500;51.084;16.958;2023-04-21T06:16:50;100614.17;;;11.01;100.00
54600;BME280;40500;51.084;16.958;2023-04-21T06:19:20;100615.29;;;11.32;100.00
54600;BME280;40500;51.084;16.958;2023-04-21T06:21:51;100613.97;;;11.39;100.00
54600;BME280;40500;51.084;16.958;2023-04-21T06:24:21;100611.09;;;11.32;100.00
54600;BME280;40500;51.084;16.958;2023-04-21T06:26:54;100610.47;;;11.27;100.00
54600;BME280;40500;51.084;16.958;2023-04-21T06:29:24;100607.17;;;11.24;100.00
54600;BME280;40500;51.084;16.958;2023-04-21T06:31:55;100604.34;;;11.26;100.00
54600;BME280;40500;51.084;16.958;2023-04-21T06:34:25;100604.63;;;11.31;100.00
54600;BME280;40500;51.084;16.958;2023-04-21T06:36:56;100604.19;;;11.36;100.00
54600;BME280;40500;51.084;16.958;2023-04-21T06:39:26;100602.36;;;11.41;100.00
54600;BME280;40500;51.084;16.958;2023-04-21T06:41:56;100601.38;;;11.47;100.00
54600;BME280;40500;51.084;16.958;2023-04-21T06:44:28;100603.21;;;11.53;100.00
54600;BME280;40500;51.084;16.958;2023-04-21T06:47:00;100599.66;;;11.56;100.00
54600;BME280;40500;51.084;16.958;2023-04-21T06:49:30;100592.41;;;11.59;100.00
54600;BME280;40500;51.084;16.958;2023-04-21T06:52:02;100597.52;;;11.68;100.00
54600;BME280;40500;51.084;16.958;2023-04-21T06:54:32;100596.55;;;11.74;100.00
54600;BME280;40500;51.084;16.958;2023-04-21T06:57:04;100594.84;;;11.80;100.00
54600;BME280;40500;51.084;16.958;2023-04-21T06:59:34;100593.47;;;11.90;100.00
54600;BME280;40500;51.084;16.958;2023-04-21T07:02:05;100591.73;;;11.99;100.00
54600;BME280;40500;51.084;16.958;2023-04-21T07:04:35;100594.06;;;12.06;100.00
54600;BME280;40500;51.084;16.958;2023-04-21T07:07:06;100595.33;;;12.13;100.00
54600;BME280;40500;51.084;16.958;2023-04-21T07:09:36;100594.67;;;12.20;100.00
54600;BME280;40500;51.084;16.958;2023-04-21T07:12:06;100599.27;;;12.27;100.00
54600;BME280;40500;51.084;16.958;2023-04-21T07:14:37;100593.73;;;12.32;100.00
54600;BME280;40500;51.084;16.958;2023-04-21T07:17:07;100594.13;;;12.39;100.00
54600;BME280;40500;51.084;16.958;2023-04-21T07:19:38;100592.23;;;12.45;100.00
54600;BME280;40500;51.084;16.958;2023-04-21T07:22:08;100592.54;;;12.55;100.00
54600;BME280;40500;51.084;16.958;2023-04-21T07:24:39;100589.05;;;12.63;100.00
54600;BME280;40500;51.084;16.958;2023-04-21T07:27:09;100585.70;;;12.72;100.00
54600;BME280;40500;51.084;16.958;2023-04-21T07:29:39;100587.89;;;12.77;100.00
54600;BME280;40500;51.084;16.958;2023-04-21T07:32:10;100590.00;;;12.84;100.00
54600;BME280;40500;51.084;16.958;2023-04-21T07:34:40;100588.13;;;12.89;100.00
54600;BME280;40500;51.084;16.958;2023-04-21T07:37:11;100590.29;;;12.95;100.00
54600;BME280;40500;51.084;16.958;2023-04-21T07:39:42;100590.64;;;13.02;100.00
54600;BME280;40500;51.084;16.958;2023-04-21T07:42:12;100594.70;;;13.09;100.00
54600;BME280;40500;51.084;16.958;2023-04-21T07:44:43;100594.27;;;13.12;100.00
54600;BME280;40500;51.084;16.958;2023-04-21T07:47:13;100590.39;;;13.14;100.00
54600;BME280;40500;51.084;16.958;2023-04-21T07:49:44;100592.36;;;13.19;100.00
54600;BME280;40500;51.084;16.958;2023-04-21T07:52:14;100583.63;;;13.24;100.00
54600;BME280;40500;51.084;16.958;2023-04-21T07:54:45;100585.60;;;13.31;100.00
54600;BME280;40500;51.084;16.958;2023-04-21T07:57:15;100583.67;;;13.38;100.00
54600;BME280;40500;51.084;16.958;2023-04-21T07:59:46;100584.45;;;13.42;100.00
54600;BME280;40500;51.084;16.958;2023-04-21T08:02:16;100581.83;;;13.49;100.00
54600;BME280;40500;51.084;16.958;2023-04-21T08:04:47;100581.09;;;13.57;100.00
54600;BME280;40500;51.084;16.958;2023-04-21T08:07:18;100582.42;;;13.67;100.00
54600;BME280;40500;51.084;16.958;2023-04-21T08:09:48;100582.05;;;13.74;100.00
54600;BME280;40500;51.084;16.958;2023-04-21T08:12:19;100577.48;;;13.81;100.00
54600;BME280;40500;51.084;16.958;2023-04-21T08:14:49;100578.84;;;13.90;100.00
54600;BME280;40500;51.084;16.958;2023-04-21T08:17:19;100580.03;;;13.98;100.00
54600;BME280;40500;51.084;16.958;2023-04-21T08:19:50;100578.73;;;14.07;100.00
54600;BME280;40500;51.084;16.958;2023-04-21T08:22:20;100577.51;;;14.13;100.00
54600;BME280;40500;51.084;16.958;2023-04-21T08:24:51;100575.02;;;14.20;100.00
54600;BME280;40500;51.084;16.958;2023-04-21T08:27:22;100576.59;;;14.27;100.00
54600;BME280;40500;51.084;16.958;2023-04-21T08:29:52;100570.16;;;14.30;100.00
54600;BME280;40500;51.084;16.958;2023-04-21T08:32:23;100570.43;;;14.32;100.00
54600;BME280;40500;51.084;16.958;2023-04-21T08:34:55;100572.27;;;14.36;100.00
54600;BME280;40500;51.084;16.958;2023-04-21T08:37:25;100569.57;;;14.44;100.00
54600;BME280;40500;51.084;16.958;2023-04-21T08:39:55;100567.91;;;14.52;100.00
54600;BME280;40500;51.084;16.958;2023-04-21T08:42:26;100567.52;;;14.61;100.00
54600;BME280;40500;51.084;16.958;2023-04-21T08:44:56;100565.74;;;14.67;100.00
54600;BME280;40500;51.084;16.958;2023-04-21T08:47:27;100566.17;;;14.71;100.00
54600;BME280;40500;51.084;16.958;2023-04-21T08:49:58;100563.34;;;14.77;100.00
54600;BME280;40500;51.084;16.958;2023-04-21T08:52:28;100562.11;;;14.82;100.00
54600;BME280;40500;51.084;16.958;2023-04-21T08:54:59;100560.83;;;14.89;100.00
54600;BME280;40500;51.084;16.958;2023-04-21T08:57:30;100561.19;;;14.95;100.00
54600;BME280;40500;51.084;16.958;2023-04-21T09:00:01;100564.54;;;15.00;100.00
54600;BME280;40500;51.084;16.958;2023-04-21T09:02:53;100558.90;;;15.06;100.00
54600;BME280;40500;51.084;16.958;2023-04-21T09:05:30;100553.38;;;15.13;100.00
54600;BME280;40500;51.084;16.958;2023-04-21T09:08:12;100556.34;;;15.20;100.00
54600;BME280;40500;51.084;16.958;2023-04-21T09:10:45;100555.09;;;15.26;100.00
54600;BME280;40500;51.084;16.958;2023-04-21T09:13:18;100552.30;;;15.30;100.00
54600;BME280;40500;51.084;16.958;2023-04-21T09:15:50;100545.94;;;15.36;100.00
54600;BME280;40500;51.084;16.958;2023-04-21T09:18:23;100542.41;;;15.40;100.00
54600;BME280;40500;51.084;16.958;2023-04-21T09:21:06;100541.05;;;15.45;100.00
54600;BME280;40500;51.084;16.958;2023-04-21T09:23:44;100536.70;;;15.53;100.00
54600;BME280;40500;51.084;16.958;2023-04-21T09:26:16;100537.66;;;15.61;100.00
54600;BME280;40500;51.084;16.958;2023-04-21T09:28:49;100533.04;;;15.67;100.00
54600;BME280;40500;51.084;16.958;2023-04-21T09:31:22;100536.14;;;15.75;100.00
54600;BME280;40500;51.084;16.958;2023-04-21T09:33:55;100536.25;;;15.83;100.00
54600;BME280;40500;51.084;16.958;2023-04-21T09:36:30;100535.44;;;15.91;100.00
54600;BME280;40500;51.084;16.958;2023-04-21T09:39:02;100535.06;;;15.96;100.00
54600;BME280;40500;51.084;16.958;2023-04-21T09:41:36;100529.55;;;16.06;100.00
54600;BME280;40500;51.084;16.958;2023-04-21T09:44:07;100534.52;;;16.16;100.00
54600;BME280;40500;51.084;16.958;2023-04-21T09:46:37;100523.02;;;16.26;100.00
54600;BME280;40500;51.084;16.958;2023-04-21T09:49:09;100523.58;;;16.34;100.00
54600;BME280;40500;51.084;16.958;2023-04-21T09:51:41;100518.77;;;16.40;100.00
54600;BME280;40500;51.084;16.958;2023-04-21T09:54:32;100516.31;;;16.44;100.00
54600;BME280;40500;51.084;16.958;2023-04-21T09:57:04;100514.45;;;16.47;100.00
54600;BME280;40500;51.084;16.958;2023-04-21T09:59:37;100508.95;;;16.51;100.00
54600;BME280;40500;51.084;16.958;2023-04-21T10:02:09;100512.16;;;16.60;100.00
54600;BME280;40500;51.084;16.958;2023-04-21T10:04:42;100511.13;;;16.73;100.00
54600;BME280;40500;51.084;16.958;2023-04-21T10:07:14;100505.59;;;16.84;100.00
54600;BME280;40500;51.084;16.958;2023-04-21T10:09:46;100507.94;;;16.88;100.00
54600;BME280;40500;51.084;16.958;2023-04-21T10:12:18;100503.89;;;16.91;100.00
54600;BME280;40500;51.084;16.958;2023-04-21T10:14:52;100501.50;;;16.93;100.00
54600;BME280;40500;51.084;16.958;2023-04-21T10:17:24;100492.08;;;16.99;100.00
54600;BME280;40500;51.084;16.958;2023-04-21T10:19:56;100495.58;;;17.08;100.00
54600;BME280;40500;51.084;16.958;2023-04-21T10:22:34;100493.39;;;17.14;100.00
54600;BME280;40500;51.084;16.958;2023-04-21T10:25:11;100493.16;;;17.24;100.00
54600;BME280;40500;51.084;16.958;2023-04-21T10:27:44;100484.34;;;17.31;100.00
54600;BME280;40500;51.084;16.958;2023-04-21T10:30:24;100480.34;;;17.34;100.00
54600;BME280;40500;51.084;16.958;2023-04-21T10:33:04;100486.55;;;17.37;100.00
54600;BME280;40500;51.084;16.958;2023-04-21T10:35:59;100475.59;;;17.46;100.00
54600;BME280;40500;51.084;16.958;2023-04-21T10:38:38;100473.38;;;17.56;100.00
54600;BME280;40500;51.084;16.958;2023-04-21T10:41:26;100473.52;;;17.57;100.00
54600;BME280;40500;51.084;16.958;2023-04-21T10:44:01;100472.71;;;17.63;100.00
54600;BME280;40500;51.084;16.958;2023-04-21T10:46:46;100466.88;;;17.75;100.00
54600;BME280;40500;51.084;16.958;2023-04-21T10:49:24;100462.27;;;17.95;100.00
54600;BME280;40500;51.084;16.958;2023-04-21T10:52:07;100465.45;;;18.19;100.00
54600;BME280;40500;51.084;16.958;2023-04-21T10:55:05;100461.53;;;18.42;100.00
54600;BME280;40500;51.084;16.958;2023-04-21T10:57:37;100457.24;;;18.54;100.00
54600;BME280;40500;51.084;16.958;2023-04-21T11:00:09;100458.55;;;18.56;100.00
54600;BME280;40500;51.084;16.958;2023-04-21T11:02:40;100456.80;;;18.52;100.00
54600;BME280;40500;51.084;16.958;2023-04-21T11:05:13;100452.31;;;18.49;100.00
54600;BME280;40500;51.084;16.958;2023-04-21T11:07:44;100448.52;;;18.47;100.00
54600;BME280;40500;51.084;16.958;2023-04-21T11:10:15;100448.11;;;18.41;100.00
54600;BME280;40500;51.084;16.958;2023-04-21T11:12:45;100444.52;;;18.38;100.00
54600;BME280;40500;51.084;16.958;2023-04-21T11:15:15;100444.19;;;18.49;100.00
54600;BME280;40500;51.084;16.958;2023-04-21T11:17:46;100441.79;;;18.58;100.00
54600;BME280;40500;51.084;16.958;2023-04-21T11:20:17;100443.17;;;18.66;100.00
54600;BME280;40500;51.084;16.958;2023-04-21T11:22:52;100440.45;;;18.74;100.00
54600;BME280;40500;51.084;16.958;2023-04-21T11:25:25;100437.08;;;18.86;100.00
54600;BME280;40500;51.084;16.958;2023-04-21T11:27:56;100438.87;;;18.92;100.00
54600;BME280;40500;51.084;16.958;2023-04-21T11:30:32;100438.62;;;18.94;100.00
54600;BME280;40500;51.084;16.958;2023-04-21T11:33:03;100433.92;;;18.89;100.00
54600;BME280;40500;51.084;16.958;2023-04-21T11:35:34;100431.89;;;18.90;100.00
54600;BME280;40500;51.084;16.958;2023-04-21T11:38:09;100428.27;;;19.02;100.00
54600;BME280;40500;51.084;16.958;2023-04-21T11:40:47;100423.89;;;19.19;92.69
54600;BME280;40500;51.084;16.958;2023-04-21T11:43:17;100422.74;;;19.13;90.58
54600;BME280;40500;51.084;16.958;2023-04-21T11:45:50;100418.23;;;19.01;94.72
54600;BME280;40500;51.084;16.958;2023-04-21T11:48:21;100411.31;;;19.08;97.21
54600;BME280;40500;51.084;16.958;2023-04-21T11:50:51;100416.77;;;19.30;98.20
54600;BME280;40500;51.084;16.958;2023-04-21T11:53:21;100410.52;;;19.51;97.40
54600;BME280;40500;51.084;16.958;2023-04-21T11:55:52;100406.56;;;19.72;97.11
54600;BME280;40500;51.084;16.958;2023-04-21T11:58:25;100407.09;;;19.82;93.62
54600;BME280;40500;51.084;16.958;2023-04-21T12:00:55;100402.25;;;19.92;92.58
54600;BME280;40500;51.084;16.958;2023-04-21T12:03:28;100406.13;;;20.00;91.17
54600;BME280;40500;51.084;16.958;2023-04-21T12:05:59;100407.03;;;19.96;89.52
54600;BME280;40500;51.084;16.958;2023-04-21T12:08:31;100408.76;;;19.90;90.09
54600;BME280;40500;51.084;16.958;2023-04-21T12:11:02;100404.03;;;19.76;89.41
54600;BME280;40500;51.084;16.958;2023-04-21T12:13:33;100401.63;;;19.67;89.02
54600;BME280;40500;51.084;16.958;2023-04-21T12:16:05;100402.20;;;19.73;89.26
54600;BME280;40500;51.084;16.958;2023-04-21T12:18:36;100394.92;;;19.70;88.84
54600;BME280;40500;51.084;16.958;2023-04-21T12:21:06;100402.37;;;19.60;88.01
54600;BME280;40500;51.084;16.958;2023-04-21T12:23:37;100402.29;;;19.52;87.65
54600;BME280;40500;51.084;16.958;2023-04-21T12:26:07;100390.71;;;21.69;89.26
54600;BME280;40500;51.084;16.958;2023-04-21T12:28:38;100380.95;;;25.01;81.32
54600;BME280;40500;51.084;16.958;2023-04-21T12:31:09;100370.77;;;27.50;68.80
54600;BME280;40500;51.084;16.958;2023-04-21T12:33:39;100363.48;;;29.32;63.93
54600;BME280;40500;51.084;16.958;2023-04-21T12:36:10;100362.08;;;31.19;64.69
54600;BME280;40500;51.084;16.958;2023-04-21T12:38:40;100355.89;;;32.92;61.25
54600;BME280;40500;51.084;16.958;2023-04-21T12:41:11;100356.38;;;34.34;59.04
54600;BME280;40500;51.084;16.958;2023-04-21T12:43:41;100349.05;;;35.72;55.87
54600;BME280;40500;51.084;16.958;2023-04-21T12:46:12;100341.34;;;36.82;51.01
54600;BME280;40500;51.084;16.958;2023-04-21T12:48:42;100345.67;;;37.71;49.03
54600;BME280;40500;51.084;16.958;2023-04-21T12:51:13;100339.14;;;38.42;42.40
54600;BME280;40500;51.084;16.958;2023-04-21T12:53:43;100338.48;;;38.78;36.25
54600;BME280;40500;51.084;16.958;2023-04-21T12:56:14;100332.61;;;38.71;29.62
54600;BME280;40500;51.084;16.958;2023-04-21T12:58:44;100333.64;;;38.56;34.00